Terminal Aerodrome Forecast
Issued by NWS

Current Version | Previous Version | Text Only | Print | Product List | Glossary On
Versions: 1 2 3 4 5 6 7 8 9 10 11 12 13 14 15 16 17 18 19
000
FTUS41 KILN 232300
TAFLUK
TAF
KLUK 232326Z 2400/2424 05006KT P6SM BKN250
     FM240600 07003KT P6SM OVC090
     FM241500 12009KT P6SM SCT120 BKN200=

USA.gov is the U.S. government's official web portal to all federal, state and local government web resources and services.